This is the latest recevied weather packets stored in our database for station/object DB2AG-13. If no packets are shown the sender has not sent any weather packets the latest 10 day(s).
| Time | Temp. | Humidity | Pressure | Rain* | Wind** | Luminosity | Snow |
|---|---|---|---|---|---|---|---|
| 1787489342 | 20.56° C | 41% | 1024 hPa | - | - | - | - |
| 1787488802 | 20° C | 42% | 1024.2 hPa | - | - | - | - |
| 1787488264 | 20.56° C | 40% | 1024.1 hPa | - | - | - | - |
| 1787487726 | 20.56° C | 40% | 1024.1 hPa | - | - | - | - |
| 1787487184 | 21.11° C | 39% | 1024.1 hPa | - | - | - | - |
| 1787486656 | 20.56° C | 42% | 1024.1 hPa | - | - | - | - |
| 1787486122 | 20° C | 42% | 1024 hPa | - | - | - | - |
| 1787485581 | 20° C | 43% | 1024.1 hPa | - | - | - | - |
| 1787485043 | 20° C | 43% | 1024 hPa | - | - | - | - |
| 1787483959 | 20° C | 44% | 1024.1 hPa | - | - | - | - |
| 1787483421 | 19.44° C | 45% | 1024.2 hPa | - | - | - | - |
| 1787482885 | 19.44° C | 43% | 1024.2 hPa | - | - | - | - |
| 1787482347 | 20° C | 42% | 1024.2 hPa | - | - | - | - |
| 1787481816 | 20.56° C | 41% | 1024.2 hPa | - | - | - | - |
| 1787481279 | 20.56° C | 41% | 1024.2 hPa | - | - | - | - |
| 1787480739 | 20.56° C | 46% | 1024.2 hPa | - | - | - | - |
| 1787480192 | 19.44° C | 45% | 1024.1 hPa | - | - | - | - |
| 1787479650 | 20.56° C | 40% | 1024.1 hPa | - | - | - | - |
| 1787479115 | 22.22° C | 39% | 1024 hPa | - | - | - | - |
| 1787478570 | 22.22° C | 41% | 1024.1 hPa | - | - | - | - |
| 1787478032 | 21.67° C | 42% | 1024.1 hPa | - | - | - | - |
| 1787477496 | 21.11° C | 45% | 1024 hPa | - | - | - | - |
| 1787476413 | 19.44° C | 46% | 1024.2 hPa | - | - | - | - |
| 1787475871 | 20° C | 44% | 1024 hPa | - | - | - | - |
| 1787475324 | 20° C | 44% | 1024 hPa | - | - | - | - |
* Rain since midnight (hover to see other rain measurements)
** Current wind speed in m/s (hover to see current wind gust speed)